createdAt,value
2023-04-02T00:00:21.494Z,98215.00
2023-04-02T00:03:01.479Z,98218.47
2023-04-02T00:05:34.866Z,98223.88
2023-04-02T00:08:10.087Z,98217.53
2023-04-02T00:10:47.770Z,98218.88
2023-04-02T00:13:24.807Z,98220.97
2023-04-02T00:15:58.156Z,98214.56
2023-04-02T00:18:28.693Z,98220.78
2023-04-02T00:21:05.141Z,98226.22
2023-04-02T00:23:34.050Z,98227.44
2023-04-02T00:26:08.375Z,98227.16
2023-04-02T00:28:37.309Z,98229.91
2023-04-02T00:31:06.934Z,98231.16
2023-04-02T00:33:36.900Z,98229.03
2023-04-02T00:36:08.655Z,98232.69
2023-04-02T00:38:38.513Z,98234.16
2023-04-02T00:41:09.115Z,98230.09
2023-04-02T00:43:39.745Z,98232.75
2023-04-02T00:46:16.364Z,98228.03
2023-04-02T00:48:51.712Z,98229.16
2023-04-02T00:51:25.713Z,98230.53
2023-04-02T00:53:58.317Z,98229.78
2023-04-02T00:56:32.395Z,98227.00
2023-04-02T00:59:01.292Z,98230.63
2023-04-02T01:01:37.174Z,98231.22
2023-04-02T01:04:07.191Z,98231.03
2023-04-02T01:06:38.726Z,98233.38
2023-04-02T01:09:29.520Z,98236.06
2023-04-02T01:12:15.073Z,98244.94
2023-04-02T01:14:52.234Z,98254.34
2023-04-02T01:17:32.771Z,98255.41
2023-04-02T01:20:37.398Z,98269.47
2023-04-02T01:23:10.777Z,98263.84
2023-04-02T01:25:45.389Z,98263.38
2023-04-02T01:28:20.668Z,98273.63
2023-04-02T01:30:57.417Z,98270.97
2023-04-02T01:33:32.168Z,98270.88
2023-04-02T01:36:08.268Z,98277.16
2023-04-02T01:38:45.695Z,98279.78
2023-04-02T01:41:24.820Z,98277.47
2023-04-02T01:44:00.092Z,98284.91
2023-04-02T01:46:32.063Z,98278.47
2023-04-02T01:49:04.244Z,98291.19
2023-04-02T01:51:36.180Z,98280.88
2023-04-02T01:54:06.214Z,98292.38
2023-04-02T01:56:36.187Z,98284.38
2023-04-02T01:59:06.868Z,98290.72
2023-04-02T02:01:40.710Z,98294.53
2023-04-02T02:04:13.455Z,98295.53
2023-04-02T02:06:42.635Z,98305.47
2023-04-02T02:09:18.652Z,98301.59
2023-04-02T02:11:47.821Z,98302.03
2023-04-02T02:14:18.896Z,98299.34
2023-04-02T02:16:49.391Z,98310.25
2023-04-02T02:19:26.295Z,98309.69
2023-04-02T02:21:56.471Z,98305.06
2023-04-02T02:24:27.058Z,98308.38
2023-04-02T02:27:07.906Z,98305.06
2023-04-02T02:29:39.533Z,98305.81
2023-04-02T02:32:12.400Z,98306.56
2023-04-02T02:34:45.485Z,98300.69
2023-04-02T02:37:17.852Z,98307.63
2023-04-02T02:39:49.301Z,98309.63
2023-04-02T02:42:24.881Z,98308.28
2023-04-02T02:44:55.719Z,98312.59
2023-04-02T02:47:29.506Z,98316.97
2023-04-02T02:50:01.536Z,98317.72
2023-04-02T02:52:33.428Z,98319.81
2023-04-02T02:55:06.732Z,98322.38
2023-04-02T02:57:42.124Z,98316.75
2023-04-02T03:00:13.164Z,98322.38
2023-04-02T03:02:44.422Z,98325.97
2023-04-02T03:05:19.405Z,98320.09
2023-04-02T03:07:48.607Z,98320.56
2023-04-02T03:10:23.100Z,98321.34
2023-04-02T03:12:57.765Z,98326.94
2023-04-02T03:15:34.429Z,98323.69
2023-04-02T03:18:12.499Z,98317.91
2023-04-02T03:20:46.805Z,98318.53
2023-04-02T03:23:21.160Z,98323.88
2023-04-02T03:25:57.482Z,98313.50
2023-04-02T03:28:30.655Z,98324.59
2023-04-02T03:31:06.229Z,98322.56
2023-04-02T03:33:39.242Z,98323.94
2023-04-02T03:36:20.323Z,98325.25
2023-04-02T03:38:55.712Z,98327.88
2023-04-02T03:41:28.275Z,98329.69
2023-04-02T03:44:00.181Z,98326.94
2023-04-02T03:46:34.772Z,98335.19
2023-04-02T03:49:08.854Z,98331.44
2023-04-02T03:51:42.461Z,98336.19
2023-04-02T03:54:16.131Z,98340.91
2023-04-02T03:56:47.468Z,98347.69
2023-04-02T03:59:22.309Z,98351.44
2023-04-02T04:01:56.626Z,98348.47
2023-04-02T04:04:30.515Z,98347.25
2023-04-02T04:07:01.909Z,98355.31
2023-04-02T04:09:34.710Z,98348.22
2023-04-02T04:12:14.596Z,98356.75
2023-04-02T04:14:46.682Z,98361.38
2023-04-02T04:17:24.739Z,98373.69
2023-04-02T04:20:00.350Z,98363.94
2023-04-02T04:22:31.911Z,98363.16
2023-04-02T04:25:02.335Z,98366.25
2023-04-02T04:27:37.989Z,98372.16
2023-04-02T04:30:17.056Z,98373.41
2023-04-02T04:32:50.443Z,98376.22
2023-04-02T04:35:27.334Z,98379.72
2023-04-02T04:37:59.354Z,98376.38
2023-04-02T04:40:31.432Z,98386.56
2023-04-02T04:43:04.592Z,98390.78
2023-04-02T04:45:42.661Z,98389.69
2023-04-02T04:48:17.718Z,98395.28
2023-04-02T04:50:55.021Z,98392.31
2023-04-02T04:53:25.376Z,98398.38
2023-04-02T04:55:59.718Z,98394.91
2023-04-02T04:58:36.705Z,98394.25
2023-04-02T05:01:09.166Z,98396.22
2023-04-02T05:03:45.118Z,98393.03
2023-04-02T05:06:24.814Z,98393.88
2023-04-02T05:08:56.392Z,98397.63
2023-04-02T05:11:29.510Z,98400.91
2023-04-02T05:14:02.171Z,98406.22
2023-04-02T05:16:36.001Z,98409.09
2023-04-02T05:19:09.491Z,98412.19
2023-04-02T05:21:44.057Z,98422.53
2023-04-02T05:24:52.694Z,98422.88
2023-04-02T05:27:28.633Z,98421.47
2023-04-02T05:30:02.812Z,98430.75
2023-04-02T05:32:36.214Z,98430.53
2023-04-02T05:35:07.427Z,98434.72
2023-04-02T05:37:41.294Z,98435.25
2023-04-02T05:40:16.801Z,98436.28
2023-04-02T05:42:49.743Z,98433.81
2023-04-02T05:45:27.224Z,98445.09
2023-04-02T05:48:01.928Z,98448.63
2023-04-02T05:50:37.421Z,98454.47
2023-04-02T05:53:14.578Z,98457.47
2023-04-02T05:55:50.993Z,98457.56
2023-04-02T05:58:35.301Z,98452.66
2023-04-02T06:01:21.110Z,98460.00
2023-04-02T06:03:57.058Z,98466.03
2023-04-02T06:06:50.663Z,98472.81
2023-04-02T06:09:24.955Z,98463.16
2023-04-02T06:12:02.122Z,98467.34
2023-04-02T06:14:31.215Z,98470.03
2023-04-02T06:17:00.164Z,98476.66
2023-04-02T06:19:33.443Z,98473.97
2023-04-02T06:22:11.556Z,98479.50
2023-04-02T06:24:42.422Z,98482.66
2023-04-02T06:27:20.041Z,98482.03
2023-04-02T06:29:53.090Z,98486.66
2023-04-02T06:32:25.778Z,98488.69
2023-04-02T06:34:54.422Z,98488.75
2023-04-02T06:37:28.708Z,98492.66
2023-04-02T06:40:02.497Z,98497.31
2023-04-02T06:42:35.525Z,98499.41
2023-04-02T06:45:05.562Z,98495.56
2023-04-02T06:47:39.381Z,98503.06
2023-04-02T06:50:14.436Z,98506.75
2023-04-02T06:52:47.409Z,98507.78
2023-04-02T06:55:44.964Z,98503.06
2023-04-02T06:58:13.695Z,98508.88
2023-04-02T07:00:46.052Z,98498.06
2023-04-02T07:03:18.347Z,98504.03
2023-04-02T07:05:47.653Z,98506.09
2023-04-02T07:08:17.067Z,98505.31
2023-04-02T07:10:47.462Z,98503.47
2023-04-02T07:13:17.430Z,98507.50
2023-04-02T07:15:49.856Z,98502.44
2023-04-02T07:18:27.397Z,98515.38
2023-04-02T07:20:56.777Z,98510.00
2023-04-02T07:23:25.811Z,98520.88
2023-04-02T07:25:58.565Z,98510.00
2023-04-02T07:28:27.754Z,98517.91
2023-04-02T07:30:57.712Z,98521.44
2023-04-02T07:33:29.744Z,98518.72
2023-04-02T07:35:59.341Z,98524.22
2023-04-02T07:38:29.061Z,98529.28
2023-04-02T07:40:59.523Z,98532.50
2023-04-02T07:43:28.091Z,98527.50
2023-04-02T07:45:56.864Z,98531.19
2023-04-02T07:48:25.849Z,98532.72
2023-04-02T07:50:55.045Z,98535.53
2023-04-02T07:53:30.806Z,98532.56
2023-04-02T07:56:03.003Z,98534.28
2023-04-02T07:58:33.133Z,98539.31
2023-04-02T08:01:03.841Z,98539.81
2023-04-02T08:03:33.081Z,98537.25
2023-04-02T08:06:01.508Z,98541.84
2023-04-02T08:08:30.602Z,98540.16
2023-04-02T08:11:01.056Z,98540.16
2023-04-02T08:13:29.705Z,98536.69
2023-04-02T08:15:59.901Z,98546.50
2023-04-02T08:18:29.475Z,98538.50
2023-04-02T08:21:00.765Z,98540.94
2023-04-02T08:23:30.114Z,98539.16
2023-04-02T08:25:58.912Z,98542.38
2023-04-02T08:28:29.811Z,98546.28
2023-04-02T08:30:59.081Z,98552.69
2023-04-02T08:33:27.950Z,98554.00
2023-04-02T08:35:56.841Z,98548.09
2023-04-02T08:38:27.031Z,98552.53
2023-04-02T08:40:58.431Z,98556.78
2023-04-02T08:43:51.912Z,98564.59
2023-04-02T08:46:27.335Z,98557.94
2023-04-02T08:48:59.283Z,98564.53
2023-04-02T08:51:30.865Z,98563.59
2023-04-02T08:54:03.666Z,98567.50
2023-04-02T08:56:38.204Z,98567.81
2023-04-02T08:59:21.294Z,98560.78
2023-04-02T09:01:56.452Z,98567.41
2023-04-02T09:04:27.062Z,98571.63
2023-04-02T09:06:59.125Z,98571.09
2023-04-02T09:09:28.814Z,98577.69
2023-04-02T09:12:00.949Z,98570.56
2023-04-02T09:14:42.407Z,98575.97
2023-04-02T09:17:18.432Z,98580.72
2023-04-02T09:19:54.860Z,98581.16
2023-04-02T09:22:26.306Z,98579.97
2023-04-02T09:24:56.076Z,98582.25
2023-04-02T09:27:27.246Z,98580.75
2023-04-02T09:30:03.705Z,98590.47
2023-04-02T09:32:45.706Z,98580.78
2023-04-02T09:35:25.402Z,98585.28
2023-04-02T09:38:20.578Z,98586.00
2023-04-02T09:40:52.452Z,98588.91
2023-04-02T09:43:25.742Z,98592.31
2023-04-02T09:46:01.985Z,98581.00
2023-04-02T09:48:32.737Z,98594.06
2023-04-02T09:51:13.083Z,98586.69
2023-04-02T09:53:43.339Z,98590.19
2023-04-02T09:56:17.819Z,98592.69
2023-04-02T09:58:47.852Z,98591.81
2023-04-02T10:01:30.500Z,98595.94
2023-04-02T10:04:00.135Z,98600.22
2023-04-02T10:06:30.935Z,98596.97
2023-04-02T10:09:00.935Z,98598.88
2023-04-02T10:11:46.132Z,98594.31
2023-04-02T10:14:21.384Z,98591.16
2023-04-02T10:16:53.575Z,98594.91
2023-04-02T10:19:28.477Z,98590.22
2023-04-02T10:21:58.354Z,98590.31
2023-04-02T10:24:29.808Z,98580.97
2023-04-02T10:27:07.732Z,98587.09
2023-04-02T10:29:45.083Z,98587.56
2023-04-02T10:32:19.922Z,98587.66
2023-04-02T10:34:58.182Z,98587.91
2023-04-02T10:37:58.035Z,98588.72
2023-04-02T10:40:30.496Z,98593.94
2023-04-02T10:43:32.242Z,98592.91
2023-04-02T10:46:06.885Z,98592.16
2023-04-02T10:48:44.414Z,98600.47
2023-04-02T10:51:26.594Z,98592.75
2023-04-02T10:54:03.914Z,98597.31
2023-04-02T10:56:44.034Z,98600.06
2023-04-02T10:59:21.179Z,98595.28
2023-04-02T11:01:51.762Z,98601.06
2023-04-02T11:04:25.093Z,98600.56
2023-04-02T11:07:07.193Z,98597.88
2023-04-02T11:09:45.616Z,98594.97
2023-04-02T11:12:23.057Z,98607.22
2023-04-02T11:14:52.309Z,98600.75
2023-04-02T11:17:21.575Z,98602.91
2023-04-02T11:19:52.842Z,98604.47
2023-04-02T11:22:23.840Z,98599.81
2023-04-02T11:24:54.653Z,98600.59
2023-04-02T11:27:31.490Z,98594.09
2023-04-02T11:30:07.096Z,98602.88
2023-04-02T11:32:42.717Z,98598.16
2023-04-02T11:35:37.034Z,98601.16
2023-04-02T11:38:44.940Z,98604.53
2023-04-02T11:41:14.358Z,98600.84
2023-04-02T11:44:02.231Z,98603.63
2023-04-02T11:46:40.536Z,98607.97
2023-04-02T11:49:37.993Z,98605.22
2023-04-02T11:52:24.885Z,98612.59
2023-04-02T11:55:03.019Z,98605.53
2023-04-02T11:58:14.319Z,98616.44
2023-04-02T12:01:38.472Z,98605.94
2023-04-02T12:04:24.095Z,98602.59
2023-04-02T12:07:07.328Z,98606.66
2023-04-02T12:09:46.511Z,98609.75
2023-04-02T12:12:25.958Z,98609.34
2023-04-02T12:14:56.388Z,98617.09
2023-04-02T12:17:31.505Z,98615.66
2023-04-02T12:20:04.364Z,98613.47
2023-04-02T12:22:35.881Z,98609.41
2023-04-02T12:25:08.980Z,98605.41
2023-04-02T12:27:38.211Z,98603.53
2023-04-02T12:30:18.524Z,98599.50
2023-04-02T12:32:48.229Z,98605.06
2023-04-02T12:35:34.081Z,98595.44
2023-04-02T12:38:03.510Z,98590.19
2023-04-02T12:40:35.391Z,98593.44
2023-04-02T12:43:04.350Z,98589.78
2023-04-02T12:45:36.747Z,98589.03
2023-04-02T12:48:07.734Z,98588.28
2023-04-02T12:50:37.398Z,98589.31
2023-04-02T12:53:23.110Z,98594.47
2023-04-02T12:55:54.605Z,98591.28
2023-04-02T12:58:32.120Z,98594.63
2023-04-02T13:01:19.459Z,98600.44
2023-04-02T13:04:02.126Z,98609.97
2023-04-02T13:06:32.321Z,98612.13
2023-04-02T13:09:02.416Z,98614.53
2023-04-02T13:11:41.774Z,98612.13
2023-04-02T13:14:20.050Z,98610.31
2023-04-02T13:16:49.361Z,98604.88
2023-04-02T13:19:31.150Z,98603.69
2023-04-02T13:22:01.460Z,98604.81
2023-04-02T13:24:31.612Z,98599.22
2023-04-02T13:27:03.558Z,98595.75
2023-04-02T13:29:33.565Z,98596.53
2023-04-02T13:32:04.090Z,98592.44
2023-04-02T13:34:33.401Z,98592.16
2023-04-02T13:37:02.093Z,98596.09
2023-04-02T13:39:31.068Z,98599.28
2023-04-02T13:42:02.966Z,98598.22
2023-04-02T13:44:33.951Z,98595.34
2023-04-02T13:47:02.676Z,98597.63
2023-04-02T13:49:31.827Z,98590.41
2023-04-02T13:52:03.759Z,98598.53
2023-04-02T13:54:36.141Z,98600.84
2023-04-02T13:59:38.862Z,98602.28
2023-04-02T14:02:12.066Z,98600.47
2023-04-02T14:04:44.834Z,98602.81
2023-04-02T14:07:33.439Z,98598.38
2023-04-02T14:10:15.950Z,98603.25
2023-04-02T14:13:02.811Z,98610.66
2023-04-02T14:15:45.699Z,98608.38
2023-04-02T14:18:32.058Z,98609.16
2023-04-02T14:21:08.845Z,98609.91
2023-04-02T14:24:01.511Z,98607.50
2023-04-02T14:26:40.265Z,98606.75
2023-04-02T14:29:18.071Z,98614.94
2023-04-02T14:31:51.525Z,98615.88
2023-04-02T14:34:29.206Z,98623.38
2023-04-02T14:37:06.875Z,98622.72
2023-04-02T14:39:41.935Z,98628.84
2023-04-02T14:42:15.815Z,98624.41
2023-04-02T14:44:51.010Z,98634.09
2023-04-02T14:47:24.626Z,98629.78
2023-04-02T14:49:56.675Z,98633.00
2023-04-02T14:52:28.439Z,98642.03
2023-04-02T14:55:02.389Z,98646.47
2023-04-02T14:57:34.093Z,98652.88
2023-04-02T15:00:10.960Z,98657.03
2023-04-02T15:02:44.175Z,98665.59
2023-04-02T15:05:18.748Z,98672.41
2023-04-02T15:07:52.131Z,98675.78
2023-04-02T15:10:27.492Z,98680.78
2023-04-02T15:12:57.329Z,98683.78
2023-04-02T15:15:40.262Z,98684.81
2023-04-02T15:18:13.366Z,98689.78
2023-04-02T15:20:49.897Z,98697.97
2023-04-02T15:23:23.149Z,98694.41
2023-04-02T15:26:03.668Z,98709.88
2023-04-02T15:28:38.727Z,98705.72
2023-04-02T15:31:14.058Z,98710.53
2023-04-02T15:33:45.233Z,98714.59
2023-04-02T15:36:33.923Z,98711.38
2023-04-02T15:39:15.677Z,98717.56
2023-04-02T15:41:58.769Z,98717.69
2023-04-02T15:44:27.587Z,98719.06
2023-04-02T15:47:04.871Z,98725.28
2023-04-02T15:49:43.198Z,98717.81
2023-04-02T15:52:17.017Z,98720.25
2023-04-02T15:55:01.421Z,98714.41
2023-04-02T15:57:51.208Z,98715.75
2023-04-02T16:00:26.797Z,98720.91
2023-04-02T16:03:22.534Z,98723.50
2023-04-02T16:06:02.347Z,98723.31
2023-04-02T16:08:41.169Z,98728.00
2023-04-02T16:11:13.727Z,98733.47
2023-04-02T16:13:44.066Z,98733.00
2023-04-02T16:16:17.372Z,98743.41
2023-04-02T16:19:00.654Z,98749.63
2023-04-02T16:21:33.877Z,98755.84
2023-04-02T16:24:03.091Z,98744.56
2023-04-02T16:26:54.891Z,98752.59
2023-04-02T16:29:55.811Z,98751.66
2023-04-02T16:32:50.421Z,98753.25
2023-04-02T16:38:07.879Z,98754.31
2023-04-02T16:40:43.234Z,98758.53
2023-04-02T16:43:24.007Z,98761.13
2023-04-02T16:46:00.401Z,98764.28
2023-04-02T16:48:37.913Z,98768.69
2023-04-02T16:51:19.819Z,98768.75
2023-04-02T16:54:01.895Z,98777.09
2023-04-02T16:56:43.900Z,98780.00
2023-04-02T16:59:21.397Z,98779.84
2023-04-02T17:01:58.461Z,98788.16
2023-04-02T17:04:55.052Z,98784.63
2023-04-02T17:07:35.790Z,98794.25
2023-04-02T17:10:18.773Z,98802.28
2023-04-02T17:12:48.811Z,98803.59
2023-04-02T17:15:27.735Z,98804.75
2023-04-02T17:17:59.520Z,98805.88
2023-04-02T17:20:29.456Z,98802.63
2023-04-02T17:23:00.562Z,98816.44
2023-04-02T17:25:34.274Z,98809.47
2023-04-02T17:28:04.305Z,98818.38
2023-04-02T17:30:39.310Z,98824.91
2023-04-02T17:33:12.898Z,98826.53
2023-04-02T17:35:50.958Z,98834.81
2023-04-02T17:38:28.838Z,98844.63
2023-04-02T17:41:05.694Z,98844.91
2023-04-02T17:43:46.403Z,98854.22
2023-04-02T17:46:22.350Z,98856.84
2023-04-02T17:48:55.953Z,98869.28
2023-04-02T17:51:31.942Z,98872.69
2023-04-02T17:54:20.228Z,98881.00
2023-04-02T17:57:06.944Z,98882.56
2023-04-02T17:59:59.989Z,98886.94
2023-04-02T18:02:43.497Z,98897.28
2023-04-02T18:05:28.273Z,98892.19
2023-04-02T18:08:12.478Z,98896.66
2023-04-02T18:10:48.613Z,98914.16
2023-04-02T18:13:32.783Z,98915.53
2023-04-02T18:16:15.184Z,98921.19
2023-04-02T18:19:03.474Z,98918.16
2023-04-02T18:21:39.810Z,98930.28
2023-04-02T18:24:27.370Z,98937.00
2023-04-02T18:27:12.056Z,98935.31
2023-04-02T18:29:48.640Z,98942.81
2023-04-02T18:32:25.233Z,98944.41
2023-04-02T18:35:05.680Z,98942.09
2023-04-02T18:37:44.490Z,98947.25
2023-04-02T18:40:27.603Z,98946.25
2023-04-02T18:43:06.792Z,98941.69
2023-04-02T18:45:44.965Z,98942.72
2023-04-02T18:48:29.479Z,98938.34
2023-04-02T18:51:00.935Z,98934.22
2023-04-02T18:53:32.809Z,98929.34
2023-04-02T18:56:06.456Z,98933.47
2023-04-02T18:58:43.724Z,98942.19
2023-04-02T19:01:27.979Z,98940.66
2023-04-02T19:04:03.979Z,98945.69
2023-04-02T19:06:38.298Z,98941.56
2023-04-02T19:09:13.660Z,98954.88
2023-04-02T19:11:42.512Z,98954.88
2023-04-02T19:14:17.473Z,98963.84
2023-04-02T19:17:06.254Z,98962.56
2023-04-02T19:19:41.364Z,98966.44
2023-04-02T19:22:17.983Z,98971.56
2023-04-02T19:25:04.432Z,98977.22
2023-04-02T19:27:38.219Z,98976.47
2023-04-02T19:30:31.312Z,98982.63
2023-04-02T19:33:14.378Z,98988.34
2023-04-02T19:35:48.288Z,98998.88
2023-04-02T19:38:33.413Z,98990.41
2023-04-02T19:41:08.173Z,98986.91
2023-04-02T19:43:37.130Z,98989.22
2023-04-02T19:46:07.698Z,98985.94
2023-04-02T19:48:45.050Z,98981.03
2023-04-02T19:51:14.471Z,98976.94
2023-04-02T19:53:43.492Z,98981.03
2023-04-02T19:56:12.437Z,98980.03
2023-04-02T19:58:42.878Z,98996.16
2023-04-02T20:01:13.373Z,98988.72
2023-04-02T20:03:42.110Z,98996.41
2023-04-02T20:06:11.169Z,98995.63
2023-04-02T20:08:39.661Z,99003.34
2023-04-02T20:11:08.863Z,99004.09
2023-04-02T20:13:37.758Z,99019.25
2023-04-02T20:16:06.993Z,99011.81
2023-04-02T20:18:37.583Z,99020.47
2023-04-02T20:21:07.294Z,99020.78
2023-04-02T20:23:36.897Z,99039.31
2023-04-02T20:26:07.023Z,99038.03
2023-04-02T20:28:36.202Z,99028.28
2023-04-02T20:31:10.264Z,99046.81
2023-04-02T20:33:41.616Z,99050.66
2023-04-02T20:36:12.008Z,99046.56
2023-04-02T20:38:40.649Z,99047.59
2023-04-02T20:41:10.412Z,99053.25
2023-04-02T20:43:40.726Z,99058.66
2023-04-02T20:46:11.701Z,99064.06
2023-04-02T20:48:42.952Z,99063.56
2023-04-02T20:51:14.732Z,99064.09
2023-04-02T20:54:03.486Z,99072.56
2023-04-02T20:56:33.037Z,99066.16
2023-04-02T20:59:02.006Z,99074.94
2023-04-02T21:01:32.036Z,99068.50
2023-04-02T21:04:06.057Z,99075.22
2023-04-02T21:06:36.538Z,99078.03
2023-04-02T21:09:08.476Z,99079.06
2023-04-02T21:11:38.540Z,99086.00
2023-04-02T21:14:08.013Z,99082.41
2023-04-02T21:16:37.175Z,99086.31
2023-04-02T21:19:09.817Z,99082.97
2023-04-02T21:21:39.800Z,99082.22
2023-04-02T21:24:10.497Z,99089.13
2023-04-02T21:26:41.004Z,99088.13
2023-04-02T21:29:10.074Z,99079.91
2023-04-02T21:31:39.908Z,99095.81
2023-04-02T21:34:10.876Z,99087.59
2023-04-02T21:36:41.976Z,99088.13
2023-04-02T21:39:12.974Z,99088.91
2023-04-02T21:41:43.249Z,99080.94
2023-04-02T21:44:14.808Z,99090.44
2023-04-02T21:46:44.547Z,99077.09
2023-04-02T21:49:17.042Z,99077.09
2023-04-02T21:51:46.776Z,99083.25
2023-04-02T21:54:15.611Z,99084.28
2023-04-02T21:56:45.794Z,99081.97
2023-04-02T21:59:15.839Z,99079.69
2023-04-02T22:01:47.058Z,99084.06
2023-04-02T22:04:20.101Z,99084.56
2023-04-02T22:06:49.964Z,99087.41
2023-04-02T22:09:21.237Z,99087.91
2023-04-02T22:11:52.049Z,99089.69
2023-04-02T22:14:20.623Z,99085.63
2023-04-02T22:16:49.544Z,99095.63
2023-04-02T22:19:20.331Z,99092.56
2023-04-02T22:21:48.922Z,99095.66
2023-04-02T22:24:22.102Z,99098.22
2023-04-02T22:26:50.793Z,99101.81
2023-04-02T22:29:19.821Z,99105.38
2023-04-02T22:31:48.667Z,99103.34
2023-04-02T22:34:17.627Z,99112.81
2023-04-02T22:36:47.704Z,99114.91
2023-04-02T22:39:17.193Z,99114.13
2023-04-02T22:41:46.242Z,99105.16
2023-04-02T22:44:16.554Z,99107.72
2023-04-02T22:46:45.558Z,99111.81
2023-04-02T22:49:19.209Z,99105.91
2023-04-02T22:51:49.762Z,99112.34
2023-04-02T22:54:18.472Z,99110.53
2023-04-02T22:56:47.310Z,99121.88
2023-04-02T22:59:16.528Z,99118.25
2023-04-02T23:01:45.957Z,99125.44
2023-04-02T23:04:14.393Z,99114.16
2023-04-02T23:06:43.023Z,99115.19
2023-04-02T23:09:13.260Z,99116.47
2023-04-02T23:11:41.859Z,99125.19
2023-04-02T23:14:11.396Z,99128.53
2023-04-02T23:16:40.269Z,99115.94
2023-04-02T23:19:09.317Z,99112.88
2023-04-02T23:21:38.186Z,99110.56
2023-04-02T23:24:07.635Z,99119.25
2023-04-02T23:26:37.788Z,99119.56
2023-04-02T23:29:06.475Z,99122.38
2023-04-02T23:31:35.261Z,99123.91
2023-04-02T23:34:04.395Z,99117.22
2023-04-02T23:36:35.133Z,99125.19
2023-04-02T23:39:09.600Z,99119.28
2023-04-02T23:41:42.656Z,99125.94
2023-04-02T23:44:11.766Z,99113.63
2023-04-02T23:46:41.049Z,99125.69
2023-04-02T23:49:12.619Z,99128.25
2023-04-02T23:51:41.568Z,99132.84
2023-04-02T23:54:11.959Z,99127.97
2023-04-02T23:56:43.017Z,99126.44
2023-04-02T23:59:11.763Z,99128.50
